X  Κλείσε Στοιχεία αεροπορικών μετεωρολογικών δεδομένων METAR     EDDM Munich Airport
θερμοκρασία
68°F θερμοκρασία
63°F Σημείο δρόσου
83% Υγρασία



Ανεμος
25 MPH
40 KM/H
11 M/S
22 KTS



220°
ND
Τρέχουσες συνθήκες

καταιγισμός βροχή, Area καταιγίδα καταιγισμός βροχή, Area καταιγίδα
πίεση 1011.85 (hPa) - 29.88 (inHg)
Ορατότητα 6 (μίλι) - 9.7 (km)
Aεροδρόμιο
Κωδικός αεροδρομίου EDDM

Τοποθεσία: Munich Airport
Απόσταση: 73 (mi)

Metar:
EDDM 211750Z AUTO 22022KT 190V260 9999 SHRA VCTS FEW027 SCT///CB 20/17 Q1012 RETS TEMPO 2000 +TSRAGR SCT020 BKN045CB

ώρα: 21-07-2024 17:50 CEST